sensor_id;sensor_type;location;lat;lon;timestamp;temperature;humidity
37646;DHT22;23489;49.600;6.138;2022-11-15T00:00:33;10.00;99.90
37646;DHT22;23489;49.600;6.138;2022-11-15T00:03:20;10.10;99.90
37646;DHT22;23489;49.600;6.138;2022-11-15T00:06:05;10.10;99.90
37646;DHT22;23489;49.600;6.138;2022-11-15T00:08:49;10.10;99.90
37646;DHT22;23489;49.600;6.138;2022-11-15T00:11:34;10.10;99.90
37646;DHT22;23489;49.600;6.138;2022-11-15T00:14:18;10.10;99.90
37646;DHT22;23489;49.600;6.138;2022-11-15T00:17:02;10.10;99.90
37646;DHT22;23489;49.600;6.138;2022-11-15T00:19:46;10.10;99.90
37646;DHT22;23489;49.600;6.138;2022-11-15T00:22:34;10.10;99.90
37646;DHT22;23489;49.600;6.138;2022-11-15T00:25:18;10.10;99.90
37646;DHT22;23489;49.600;6.138;2022-11-15T00:28:02;10.10;99.90
37646;DHT22;23489;49.600;6.138;2022-11-15T00:30:46;10.20;99.90
37646;DHT22;23489;49.600;6.138;2022-11-15T00:33:30;10.20;99.90
37646;DHT22;23489;49.600;6.138;2022-11-15T00:36:15;10.20;99.90
37646;DHT22;23489;49.600;6.138;2022-11-15T00:39:00;10.20;99.90
37646;DHT22;23489;49.600;6.138;2022-11-15T00:41:44;10.20;99.90
37646;DHT22;23489;49.600;6.138;2022-11-15T00:44:28;10.20;99.90
37646;DHT22;23489;49.600;6.138;2022-11-15T00:47:13;10.20;99.90
37646;DHT22;23489;49.600;6.138;2022-11-15T00:49:58;10.20;99.90
37646;DHT22;23489;49.600;6.138;2022-11-15T00:52:42;10.30;99.90
37646;DHT22;23489;49.600;6.138;2022-11-15T00:55:27;10.30;99.90
37646;DHT22;23489;49.600;6.138;2022-11-15T00:58:11;10.30;99.90
37646;DHT22;23489;49.600;6.138;2022-11-15T01:00:56;10.40;99.90
37646;DHT22;23489;49.600;6.138;2022-11-15T01:03:41;10.30;99.90
37646;DHT22;23489;49.600;6.138;2022-11-15T01:06:25;10.30;99.90
37646;DHT22;23489;49.600;6.138;2022-11-15T01:09:09;10.40;99.90
37646;DHT22;23489;49.600;6.138;2022-11-15T01:11:54;10.40;99.90
37646;DHT22;23489;49.600;6.138;2022-11-15T01:14:38;10.40;99.90
37646;DHT22;23489;49.600;6.138;2022-11-15T01:17:22;10.40;99.90
37646;DHT22;23489;49.600;6.138;2022-11-15T01:20:07;10.40;99.90
37646;DHT22;23489;49.600;6.138;2022-11-15T01:22:51;10.50;99.90
37646;DHT22;23489;49.600;6.138;2022-11-15T01:25:35;10.50;99.90
37646;DHT22;23489;49.600;6.138;2022-11-15T01:28:20;10.50;99.90
37646;DHT22;23489;49.600;6.138;2022-11-15T01:31:08;10.50;99.90
37646;DHT22;23489;49.600;6.138;2022-11-15T01:33:52;10.60;99.90
37646;DHT22;23489;49.600;6.138;2022-11-15T01:36:37;10.50;99.90
37646;DHT22;23489;49.600;6.138;2022-11-15T01:39:21;10.60;99.90
37646;DHT22;23489;49.600;6.138;2022-11-15T01:42:05;10.60;99.90
37646;DHT22;23489;49.600;6.138;2022-11-15T01:44:51;10.60;99.90
37646;DHT22;23489;49.600;6.138;2022-11-15T01:47:39;10.70;99.90
37646;DHT22;23489;49.600;6.138;2022-11-15T01:50:30;10.70;99.90
37646;DHT22;23489;49.600;6.138;2022-11-15T01:53:16;10.70;99.90
37646;DHT22;23489;49.600;6.138;2022-11-15T01:56:06;10.70;99.90
37646;DHT22;23489;49.600;6.138;2022-11-15T01:58:52;10.70;99.90
37646;DHT22;23489;49.600;6.138;2022-11-15T02:01:37;10.70;99.90
37646;DHT22;23489;49.600;6.138;2022-11-15T02:04:26;10.70;99.90
37646;DHT22;23489;49.600;6.138;2022-11-15T02:07:13;10.70;99.90
37646;DHT22;23489;49.600;6.138;2022-11-15T02:10:02;10.70;99.90
37646;DHT22;23489;49.600;6.138;2022-11-15T02:12:47;10.70;99.90
37646;DHT22;23489;49.600;6.138;2022-11-15T02:15:40;10.60;99.90
37646;DHT22;23489;49.600;6.138;2022-11-15T02:18:37;10.60;99.90
37646;DHT22;23489;49.600;6.138;2022-11-15T02:22:23;10.60;99.90
37646;DHT22;23489;49.600;6.138;2022-11-15T02:27:53;10.60;99.90
37646;DHT22;23489;49.600;6.138;2022-11-15T02:43:48;10.40;99.90
37646;DHT22;23489;49.600;6.138;2022-11-15T02:46:45;10.40;99.90
37646;DHT22;23489;49.600;6.138;2022-11-15T02:49:57;10.30;99.90
37646;DHT22;23489;49.600;6.138;2022-11-15T02:52:45;10.30;99.90
37646;DHT22;23489;49.600;6.138;2022-11-15T02:55:33;10.10;99.90
37646;DHT22;23489;49.600;6.138;2022-11-15T03:01:46;10.10;99.90
37646;DHT22;23489;49.600;6.138;2022-11-15T03:11:08;9.90;99.90
37646;DHT22;23489;49.600;6.138;2022-11-15T03:19:55;9.60;99.90
37646;DHT22;23489;49.600;6.138;2022-11-15T03:22:43;9.60;99.90
37646;DHT22;23489;49.600;6.138;2022-11-15T03:25:29;9.60;99.90
37646;DHT22;23489;49.600;6.138;2022-11-15T03:28:23;9.70;99.90
37646;DHT22;23489;49.600;6.138;2022-11-15T03:31:12;9.70;99.90
37646;DHT22;23489;49.600;6.138;2022-11-15T03:34:49;9.70;99.90
37646;DHT22;23489;49.600;6.138;2022-11-15T03:37:51;9.70;99.90
37646;DHT22;23489;49.600;6.138;2022-11-15T03:40:39;9.60;99.90
37646;DHT22;23489;49.600;6.138;2022-11-15T03:46:46;9.50;99.90
37646;DHT22;23489;49.600;6.138;2022-11-15T03:49:37;9.50;99.90
37646;DHT22;23489;49.600;6.138;2022-11-15T03:52:22;9.50;99.90
37646;DHT22;23489;49.600;6.138;2022-11-15T03:55:10;9.50;99.90
37646;DHT22;23489;49.600;6.138;2022-11-15T03:57:58;9.50;99.90
37646;DHT22;23489;49.600;6.138;2022-11-15T04:00:43;9.50;99.90
37646;DHT22;23489;49.600;6.138;2022-11-15T04:03:28;9.40;99.90
37646;DHT22;23489;49.600;6.138;2022-11-15T04:06:12;9.40;99.90
37646;DHT22;23489;49.600;6.138;2022-11-15T04:08:56;9.40;99.90
37646;DHT22;23489;49.600;6.138;2022-11-15T04:11:41;9.40;99.90
37646;DHT22;23489;49.600;6.138;2022-11-15T04:14:25;9.30;99.90
37646;DHT22;23489;49.600;6.138;2022-11-15T04:17:09;9.40;99.90
37646;DHT22;23489;49.600;6.138;2022-11-15T04:19:54;9.40;99.90
37646;DHT22;23489;49.600;6.138;2022-11-15T04:22:58;9.30;99.90
37646;DHT22;23489;49.600;6.138;2022-11-15T04:26:04;9.30;99.90
37646;DHT22;23489;49.600;6.138;2022-11-15T04:28:49;9.30;99.90
37646;DHT22;23489;49.600;6.138;2022-11-15T04:31:52;9.20;99.90
37646;DHT22;23489;49.600;6.138;2022-11-15T04:34:36;9.20;99.90
37646;DHT22;23489;49.600;6.138;2022-11-15T04:37:22;9.10;99.90
37646;DHT22;23489;49.600;6.138;2022-11-15T04:40:07;9.10;99.90
37646;DHT22;23489;49.600;6.138;2022-11-15T04:42:52;9.10;99.90
37646;DHT22;23489;49.600;6.138;2022-11-15T04:45:36;9.10;99.90
37646;DHT22;23489;49.600;6.138;2022-11-15T04:48:20;9.10;99.90
37646;DHT22;23489;49.600;6.138;2022-11-15T04:51:04;9.10;99.90
37646;DHT22;23489;49.600;6.138;2022-11-15T04:53:49;9.00;99.90
37646;DHT22;23489;49.600;6.138;2022-11-15T04:56:33;9.00;99.90
37646;DHT22;23489;49.600;6.138;2022-11-15T04:59:17;8.90;99.90
37646;DHT22;23489;49.600;6.138;2022-11-15T05:02:02;8.90;99.90
37646;DHT22;23489;49.600;6.138;2022-11-15T05:04:45;8.90;99.90
37646;DHT22;23489;49.600;6.138;2022-11-15T05:07:30;9.00;99.90
37646;DHT22;23489;49.600;6.138;2022-11-15T05:10:14;9.00;99.90
37646;DHT22;23489;49.600;6.138;2022-11-15T05:12:59;9.10;99.90
37646;DHT22;23489;49.600;6.138;2022-11-15T05:15:43;9.20;99.90
37646;DHT22;23489;49.600;6.138;2022-11-15T05:18:27;9.20;99.90
37646;DHT22;23489;49.600;6.138;2022-11-15T05:21:13;9.20;99.90
37646;DHT22;23489;49.600;6.138;2022-11-15T05:23:58;9.20;99.90
37646;DHT22;23489;49.600;6.138;2022-11-15T05:26:42;9.20;99.90
37646;DHT22;23489;49.600;6.138;2022-11-15T05:29:27;9.10;99.90
37646;DHT22;23489;49.600;6.138;2022-11-15T05:32:11;9.20;99.90
37646;DHT22;23489;49.600;6.138;2022-11-15T05:34:56;9.20;99.90
37646;DHT22;23489;49.600;6.138;2022-11-15T05:37:40;9.20;99.90
37646;DHT22;23489;49.600;6.138;2022-11-15T05:40:25;9.10;99.90
37646;DHT22;23489;49.600;6.138;2022-11-15T05:43:10;9.10;99.90
37646;DHT22;23489;49.600;6.138;2022-11-15T05:45:54;9.10;99.90
37646;DHT22;23489;49.600;6.138;2022-11-15T05:48:41;9.00;99.90
37646;DHT22;23489;49.600;6.138;2022-11-15T05:51:27;8.90;99.90
37646;DHT22;23489;49.600;6.138;2022-11-15T05:54:14;8.80;99.90
37646;DHT22;23489;49.600;6.138;2022-11-15T05:56:58;8.70;99.90
37646;DHT22;23489;49.600;6.138;2022-11-15T05:59:43;8.60;99.90
37646;DHT22;23489;49.600;6.138;2022-11-15T06:02:28;8.60;99.90
37646;DHT22;23489;49.600;6.138;2022-11-15T06:05:12;8.50;99.90
37646;DHT22;23489;49.600;6.138;2022-11-15T06:07:59;8.40;99.90
37646;DHT22;23489;49.600;6.138;2022-11-15T06:10:43;8.40;99.90
37646;DHT22;23489;49.600;6.138;2022-11-15T06:13:27;8.40;99.90
37646;DHT22;23489;49.600;6.138;2022-11-15T06:16:11;8.30;99.90
37646;DHT22;23489;49.600;6.138;2022-11-15T06:18:56;8.30;99.90
37646;DHT22;23489;49.600;6.138;2022-11-15T06:21:39;8.30;99.90
37646;DHT22;23489;49.600;6.138;2022-11-15T06:24:24;8.30;99.90
37646;DHT22;23489;49.600;6.138;2022-11-15T06:27:08;8.20;99.90
37646;DHT22;23489;49.600;6.138;2022-11-15T06:29:52;8.10;99.90
37646;DHT22;23489;49.600;6.138;2022-11-15T06:32:36;8.10;99.90
37646;DHT22;23489;49.600;6.138;2022-11-15T06:35:20;8.00;99.90
37646;DHT22;23489;49.600;6.138;2022-11-15T06:38:06;8.00;99.90
37646;DHT22;23489;49.600;6.138;2022-11-15T06:40:51;8.00;99.90
37646;DHT22;23489;49.600;6.138;2022-11-15T06:43:36;8.00;99.90
37646;DHT22;23489;49.600;6.138;2022-11-15T06:46:21;7.90;99.90
37646;DHT22;23489;49.600;6.138;2022-11-15T06:49:05;7.90;99.90
37646;DHT22;23489;49.600;6.138;2022-11-15T06:51:49;7.80;99.90
37646;DHT22;23489;49.600;6.138;2022-11-15T06:54:34;7.80;99.90
37646;DHT22;23489;49.600;6.138;2022-11-15T06:57:18;7.80;99.90
37646;DHT22;23489;49.600;6.138;2022-11-15T07:00:04;7.70;99.90
37646;DHT22;23489;49.600;6.138;2022-11-15T07:02:49;7.70;99.90
37646;DHT22;23489;49.600;6.138;2022-11-15T07:05:34;7.70;99.90
37646;DHT22;23489;49.600;6.138;2022-11-15T07:08:18;7.70;99.90
37646;DHT22;23489;49.600;6.138;2022-11-15T07:11:06;7.70;99.90
37646;DHT22;23489;49.600;6.138;2022-11-15T07:13:50;7.70;99.90
37646;DHT22;23489;49.600;6.138;2022-11-15T07:16:36;7.70;99.90
37646;DHT22;23489;49.600;6.138;2022-11-15T07:19:21;7.80;99.90
37646;DHT22;23489;49.600;6.138;2022-11-15T07:22:04;7.70;99.90
37646;DHT22;23489;49.600;6.138;2022-11-15T07:24:49;7.80;99.90
37646;DHT22;23489;49.600;6.138;2022-11-15T07:27:33;7.80;99.90
37646;DHT22;23489;49.600;6.138;2022-11-15T07:30:18;7.80;99.90
37646;DHT22;23489;49.600;6.138;2022-11-15T07:33:02;7.90;99.90
37646;DHT22;23489;49.600;6.138;2022-11-15T07:35:47;7.90;99.90
37646;DHT22;23489;49.600;6.138;2022-11-15T07:38:35;7.90;99.90
37646;DHT22;23489;49.600;6.138;2022-11-15T07:41:19;8.00;99.90
37646;DHT22;23489;49.600;6.138;2022-11-15T07:44:03;8.00;99.90
37646;DHT22;23489;49.600;6.138;2022-11-15T07:46:48;8.10;99.90
37646;DHT22;23489;49.600;6.138;2022-11-15T07:49:32;8.10;99.90
37646;DHT22;23489;49.600;6.138;2022-11-15T07:52:16;8.20;99.90
37646;DHT22;23489;49.600;6.138;2022-11-15T07:55:01;8.20;99.90
37646;DHT22;23489;49.600;6.138;2022-11-15T07:57:45;8.30;99.90
37646;DHT22;23489;49.600;6.138;2022-11-15T08:00:29;8.30;99.90
37646;DHT22;23489;49.600;6.138;2022-11-15T08:03:15;8.30;99.90
37646;DHT22;23489;49.600;6.138;2022-11-15T08:06:01;8.30;99.90
37646;DHT22;23489;49.600;6.138;2022-11-15T08:08:46;8.40;99.90
37646;DHT22;23489;49.600;6.138;2022-11-15T08:11:31;8.40;99.90
37646;DHT22;23489;49.600;6.138;2022-11-15T08:14:15;8.50;99.90
37646;DHT22;23489;49.600;6.138;2022-11-15T08:16:59;8.50;99.90
37646;DHT22;23489;49.600;6.138;2022-11-15T08:19:43;8.60;99.90
37646;DHT22;23489;49.600;6.138;2022-11-15T08:22:28;8.70;99.90
37646;DHT22;23489;49.600;6.138;2022-11-15T08:25:12;8.70;99.90
37646;DHT22;23489;49.600;6.138;2022-11-15T08:27:58;8.80;99.90
37646;DHT22;23489;49.600;6.138;2022-11-15T08:30:43;8.90;99.90
37646;DHT22;23489;49.600;6.138;2022-11-15T08:33:30;8.90;99.90
37646;DHT22;23489;49.600;6.138;2022-11-15T08:36:16;9.00;99.90
37646;DHT22;23489;49.600;6.138;2022-11-15T08:39:01;9.00;99.90
37646;DHT22;23489;49.600;6.138;2022-11-15T08:41:45;9.20;99.90
37646;DHT22;23489;49.600;6.138;2022-11-15T08:44:29;9.20;99.90
37646;DHT22;23489;49.600;6.138;2022-11-15T08:47:13;9.20;99.90
37646;DHT22;23489;49.600;6.138;2022-11-15T08:49:58;9.30;99.90
37646;DHT22;23489;49.600;6.138;2022-11-15T08:52:41;9.40;99.90
37646;DHT22;23489;49.600;6.138;2022-11-15T08:55:26;9.40;99.90
37646;DHT22;23489;49.600;6.138;2022-11-15T08:58:10;9.50;99.90
37646;DHT22;23489;49.600;6.138;2022-11-15T09:00:54;9.60;99.90
37646;DHT22;23489;49.600;6.138;2022-11-15T09:03:39;9.70;99.90
37646;DHT22;23489;49.600;6.138;2022-11-15T09:06:23;9.70;99.90
37646;DHT22;23489;49.600;6.138;2022-11-15T09:09:07;9.90;99.90
37646;DHT22;23489;49.600;6.138;2022-11-15T09:11:52;10.00;99.90
37646;DHT22;23489;49.600;6.138;2022-11-15T09:14:36;10.20;99.90
37646;DHT22;23489;49.600;6.138;2022-11-15T09:17:20;10.40;99.90
37646;DHT22;23489;49.600;6.138;2022-11-15T09:20:05;10.50;99.90
37646;DHT22;23489;49.600;6.138;2022-11-15T09:22:50;10.60;99.90
37646;DHT22;23489;49.600;6.138;2022-11-15T09:25:34;10.60;99.90
37646;DHT22;23489;49.600;6.138;2022-11-15T09:28:18;10.60;99.90
37646;DHT22;23489;49.600;6.138;2022-11-15T09:31:04;10.60;99.90
37646;DHT22;23489;49.600;6.138;2022-11-15T09:33:48;10.60;99.90
37646;DHT22;23489;49.600;6.138;2022-11-15T09:36:33;10.60;99.90
37646;DHT22;23489;49.600;6.138;2022-11-15T09:39:17;10.60;99.90
37646;DHT22;23489;49.600;6.138;2022-11-15T09:45:18;10.70;99.90
37646;DHT22;23489;49.600;6.138;2022-11-15T09:48:12;10.70;99.90
37646;DHT22;23489;49.600;6.138;2022-11-15T09:53:55;10.90;99.90
37646;DHT22;23489;49.600;6.138;2022-11-15T09:56:23;11.00;99.90
37646;DHT22;23489;49.600;6.138;2022-11-15T10:01:22;11.10;99.90
37646;DHT22;23489;49.600;6.138;2022-11-15T10:03:53;11.10;99.90
37646;DHT22;23489;49.600;6.138;2022-11-15T10:06:24;11.10;99.90
37646;DHT22;23489;49.600;6.138;2022-11-15T10:08:52;11.10;99.90
37646;DHT22;23489;49.600;6.138;2022-11-15T10:11:22;11.10;99.90
37646;DHT22;23489;49.600;6.138;2022-11-15T10:13:49;11.10;99.90
37646;DHT22;23489;49.600;6.138;2022-11-15T10:21:21;11.20;99.90
37646;DHT22;23489;49.600;6.138;2022-11-15T10:23:50;11.20;99.90
37646;DHT22;23489;49.600;6.138;2022-11-15T10:26:16;11.40;99.90
37646;DHT22;23489;49.600;6.138;2022-11-15T10:28:42;11.60;99.90
37646;DHT22;23489;49.600;6.138;2022-11-15T10:31:24;11.70;99.90
37646;DHT22;23489;49.600;6.138;2022-11-15T10:33:51;11.90;99.90
37646;DHT22;23489;49.600;6.138;2022-11-15T10:36:22;11.90;99.90
37646;DHT22;23489;49.600;6.138;2022-11-15T10:46:26;12.00;99.90
37646;DHT22;23489;49.600;6.138;2022-11-15T10:48:52;12.00;99.90
37646;DHT22;23489;49.600;6.138;2022-11-15T10:51:21;12.00;99.90
37646;DHT22;23489;49.600;6.138;2022-11-15T10:53:47;12.00;99.90
37646;DHT22;23489;49.600;6.138;2022-11-15T10:56:14;12.20;99.90
37646;DHT22;23489;49.600;6.138;2022-11-15T10:58:41;12.20;99.90
37646;DHT22;23489;49.600;6.138;2022-11-15T11:01:08;12.30;99.90
37646;DHT22;23489;49.600;6.138;2022-11-15T11:03:35;12.40;99.90
37646;DHT22;23489;49.600;6.138;2022-11-15T11:06:07;12.40;99.90
37646;DHT22;23489;49.600;6.138;2022-11-15T11:08:33;12.40;99.90
37646;DHT22;23489;49.600;6.138;2022-11-15T11:11:00;12.40;99.90
37646;DHT22;23489;49.600;6.138;2022-11-15T11:13:29;12.40;99.90
37646;DHT22;23489;49.600;6.138;2022-11-15T11:18:28;12.60;99.90
37646;DHT22;23489;49.600;6.138;2022-11-15T11:21:00;12.50;99.90
37646;DHT22;23489;49.600;6.138;2022-11-15T11:25:56;12.50;99.90
37646;DHT22;23489;49.600;6.138;2022-11-15T11:31:18;12.40;99.90
37646;DHT22;23489;49.600;6.138;2022-11-15T11:36:23;12.70;99.90
37646;DHT22;23489;49.600;6.138;2022-11-15T11:38:58;12.70;99.90
37646;DHT22;23489;49.600;6.138;2022-11-15T11:49:12;12.80;99.90
37646;DHT22;23489;49.600;6.138;2022-11-15T11:51:45;12.90;99.90
37646;DHT22;23489;49.600;6.138;2022-11-15T11:54:34;13.00;99.90
37646;DHT22;23489;49.600;6.138;2022-11-15T11:57:03;13.20;99.90
37646;DHT22;23489;49.600;6.138;2022-11-15T11:59:34;13.30;99.90
37646;DHT22;23489;49.600;6.138;2022-11-15T12:02:09;13.30;99.90
37646;DHT22;23489;49.600;6.138;2022-11-15T12:04:38;13.30;99.90
37646;DHT22;23489;49.600;6.138;2022-11-15T12:07:08;13.20;99.90
37646;DHT22;23489;49.600;6.138;2022-11-15T12:09:52;13.10;99.90
37646;DHT22;23489;49.600;6.138;2022-11-15T12:17:35;12.90;99.90
37646;DHT22;23489;49.600;6.138;2022-11-15T12:20:05;12.90;99.90
37646;DHT22;23489;49.600;6.138;2022-11-15T12:25:16;12.90;99.90
37646;DHT22;23489;49.600;6.138;2022-11-15T12:27:45;12.90;99.90
37646;DHT22;23489;49.600;6.138;2022-11-15T12:30:18;12.90;99.90
37646;DHT22;23489;49.600;6.138;2022-11-15T12:32:54;13.00;99.90
37646;DHT22;23489;49.600;6.138;2022-11-15T12:35:38;13.10;99.90
37646;DHT22;23489;49.600;6.138;2022-11-15T12:38:08;13.10;99.90
37646;DHT22;23489;49.600;6.138;2022-11-15T12:40:35;13.20;99.90
37646;DHT22;23489;49.600;6.138;2022-11-15T12:43:03;13.20;99.90
37646;DHT22;23489;49.600;6.138;2022-11-15T12:45:33;13.30;99.90
37646;DHT22;23489;49.600;6.138;2022-11-15T13:01:06;13.40;99.90
37646;DHT22;23489;49.600;6.138;2022-11-15T13:03:32;13.30;99.90
37646;DHT22;23489;49.600;6.138;2022-11-15T13:05:58;13.30;99.90
37646;DHT22;23489;49.600;6.138;2022-11-15T13:08:44;13.30;99.90
37646;DHT22;23489;49.600;6.138;2022-11-15T13:13:57;13.40;99.90
37646;DHT22;23489;49.600;6.138;2022-11-15T13:16:22;13.50;99.90
37646;DHT22;23489;49.600;6.138;2022-11-15T13:18:54;13.40;99.90
37646;DHT22;23489;49.600;6.138;2022-11-15T13:21:21;13.40;99.90
37646;DHT22;23489;49.600;6.138;2022-11-15T13:24:10;13.20;99.90
37646;DHT22;23489;49.600;6.138;2022-11-15T13:26:38;13.00;99.90
37646;DHT22;23489;49.600;6.138;2022-11-15T13:29:04;13.00;99.90
37646;DHT22;23489;49.600;6.138;2022-11-15T13:31:51;12.90;99.90
37646;DHT22;23489;49.600;6.138;2022-11-15T13:34:26;12.80;99.90
37646;DHT22;23489;49.600;6.138;2022-11-15T13:36:52;12.70;99.90
37646;DHT22;23489;49.600;6.138;2022-11-15T13:39:32;12.70;99.90
37646;DHT22;23489;49.600;6.138;2022-11-15T13:41:58;12.70;99.90
37646;DHT22;23489;49.600;6.138;2022-11-15T13:44:28;12.70;99.90
37646;DHT22;23489;49.600;6.138;2022-11-15T13:47:27;12.70;99.90
37646;DHT22;23489;49.600;6.138;2022-11-15T13:49:46;12.60;99.90
37646;DHT22;23489;49.600;6.138;2022-11-15T13:52:13;12.70;99.90
37646;DHT22;23489;49.600;6.138;2022-11-15T13:54:42;12.70;99.90
37646;DHT22;23489;49.600;6.138;2022-11-15T13:57:14;12.70;99.90
37646;DHT22;23489;49.600;6.138;2022-11-15T14:02:13;12.90;99.90
37646;DHT22;23489;49.600;6.138;2022-11-15T14:04:55;12.90;99.90
37646;DHT22;23489;49.600;6.138;2022-11-15T14:07:23;12.90;99.90
37646;DHT22;23489;49.600;6.138;2022-11-15T14:09:49;13.00;99.90
37646;DHT22;23489;49.600;6.138;2022-11-15T14:14:46;13.00;99.90
37646;DHT22;23489;49.600;6.138;2022-11-15T14:20:26;13.00;99.90
37646;DHT22;23489;49.600;6.138;2022-11-15T14:22:57;13.00;99.90
37646;DHT22;23489;49.600;6.138;2022-11-15T14:25:26;13.00;99.90
37646;DHT22;23489;49.600;6.138;2022-11-15T14:28:12;13.00;99.90
37646;DHT22;23489;49.600;6.138;2022-11-15T14:30:39;12.90;99.90
37646;DHT22;23489;49.600;6.138;2022-11-15T14:33:17;12.90;99.90
37646;DHT22;23489;49.600;6.138;2022-11-15T14:35:43;12.90;99.90
37646;DHT22;23489;49.600;6.138;2022-11-15T14:38:09;12.90;99.90
37646;DHT22;23489;49.600;6.138;2022-11-15T14:40:34;12.80;99.90
37646;DHT22;23489;49.600;6.138;2022-11-15T14:43:00;12.70;99.90
37646;DHT22;23489;49.600;6.138;2022-11-15T14:45:26;12.70;99.90
37646;DHT22;23489;49.600;6.138;2022-11-15T14:47:52;12.60;99.90
37646;DHT22;23489;49.600;6.138;2022-11-15T14:50:20;12.60;99.90
37646;DHT22;23489;49.600;6.138;2022-11-15T14:52:47;12.60;99.90
37646;DHT22;23489;49.600;6.138;2022-11-15T14:55:15;12.50;99.90
37646;DHT22;23489;49.600;6.138;2022-11-15T14:57:42;12.50;99.90
37646;DHT22;23489;49.600;6.138;2022-11-15T15:00:08;12.40;99.90
37646;DHT22;23489;49.600;6.138;2022-11-15T15:02:38;12.40;99.90
37646;DHT22;23489;49.600;6.138;2022-11-15T15:05:12;12.40;99.90
37646;DHT22;23489;49.600;6.138;2022-11-15T15:07:39;12.30;99.90
37646;DHT22;23489;49.600;6.138;2022-11-15T15:10:04;12.30;99.90
37646;DHT22;23489;49.600;6.138;2022-11-15T15:12:30;12.30;99.90
37646;DHT22;23489;49.600;6.138;2022-11-15T15:14:55;12.30;99.90
37646;DHT22;23489;49.600;6.138;2022-11-15T15:17:21;12.30;99.90
37646;DHT22;23489;49.600;6.138;2022-11-15T15:19:47;12.30;99.90
37646;DHT22;23489;49.600;6.138;2022-11-15T15:22:14;12.20;99.90
37646;DHT22;23489;49.600;6.138;2022-11-15T15:24:40;12.20;99.90
37646;DHT22;23489;49.600;6.138;2022-11-15T15:27:06;12.10;99.90
37646;DHT22;23489;49.600;6.138;2022-11-15T15:29:32;12.10;99.90
37646;DHT22;23489;49.600;6.138;2022-11-15T15:31:57;12.00;99.90
37646;DHT22;23489;49.600;6.138;2022-11-15T15:34:23;12.00;99.90
37646;DHT22;23489;49.600;6.138;2022-11-15T15:36:48;11.90;99.90
37646;DHT22;23489;49.600;6.138;2022-11-15T15:39:14;11.90;99.90
37646;DHT22;23489;49.600;6.138;2022-11-15T15:41:39;11.80;99.90
37646;DHT22;23489;49.600;6.138;2022-11-15T15:44:05;11.80;99.90
37646;DHT22;23489;49.600;6.138;2022-11-15T15:46:30;11.80;99.90
37646;DHT22;23489;49.600;6.138;2022-11-15T15:48:56;11.80;99.90
37646;DHT22;23489;49.600;6.138;2022-11-15T15:51:21;11.70;99.90
37646;DHT22;23489;49.600;6.138;2022-11-15T15:53:47;11.70;99.90
37646;DHT22;23489;49.600;6.138;2022-11-15T15:56:13;11.70;99.90
37646;DHT22;23489;49.600;6.138;2022-11-15T15:58:38;11.70;99.90
37646;DHT22;23489;49.600;6.138;2022-11-15T16:01:04;11.60;99.90
37646;DHT22;23489;49.600;6.138;2022-11-15T16:03:30;11.60;99.90
37646;DHT22;23489;49.600;6.138;2022-11-15T16:05:56;11.60;99.90
37646;DHT22;23489;49.600;6.138;2022-11-15T16:08:24;11.60;99.90
37646;DHT22;23489;49.600;6.138;2022-11-15T16:10:51;11.50;99.90
37646;DHT22;23489;49.600;6.138;2022-11-15T16:13:17;11.50;99.90
37646;DHT22;23489;49.600;6.138;2022-11-15T16:15:43;11.50;99.90
37646;DHT22;23489;49.600;6.138;2022-11-15T16:18:10;11.50;99.90
37646;DHT22;23489;49.600;6.138;2022-11-15T16:20:40;11.40;99.90
37646;DHT22;23489;49.600;6.138;2022-11-15T16:23:12;11.40;99.90
37646;DHT22;23489;49.600;6.138;2022-11-15T16:25:41;11.40;99.90
37646;DHT22;23489;49.600;6.138;2022-11-15T16:28:29;11.40;99.90
37646;DHT22;23489;49.600;6.138;2022-11-15T16:31:01;11.40;99.90
37646;DHT22;23489;49.600;6.138;2022-11-15T16:33:27;11.40;99.90
37646;DHT22;23489;49.600;6.138;2022-11-15T16:35:52;11.40;99.90
37646;DHT22;23489;49.600;6.138;2022-11-15T16:38:18;11.40;99.90
37646;DHT22;23489;49.600;6.138;2022-11-15T16:40:44;11.40;99.90
37646;DHT22;23489;49.600;6.138;2022-11-15T16:43:10;11.40;99.90
37646;DHT22;23489;49.600;6.138;2022-11-15T16:45:35;11.40;99.90
37646;DHT22;23489;49.600;6.138;2022-11-15T16:48:01;11.40;99.90
37646;DHT22;23489;49.600;6.138;2022-11-15T16:50:28;11.40;99.90
37646;DHT22;23489;49.600;6.138;2022-11-15T16:52:55;11.40;99.90
37646;DHT22;23489;49.600;6.138;2022-11-15T16:55:21;11.40;99.90
37646;DHT22;23489;49.600;6.138;2022-11-15T16:57:47;11.40;99.90
37646;DHT22;23489;49.600;6.138;2022-11-15T17:00:14;11.40;99.90
37646;DHT22;23489;49.600;6.138;2022-11-15T17:02:43;11.40;99.90
37646;DHT22;23489;49.600;6.138;2022-11-15T17:05:09;11.40;99.90
37646;DHT22;23489;49.600;6.138;2022-11-15T17:07:35;11.50;99.90
37646;DHT22;23489;49.600;6.138;2022-11-15T17:10:01;11.50;99.90
37646;DHT22;23489;49.600;6.138;2022-11-15T17:12:26;11.50;99.90
37646;DHT22;23489;49.600;6.138;2022-11-15T17:14:52;11.50;99.90
37646;DHT22;23489;49.600;6.138;2022-11-15T17:17:18;11.50;99.90
37646;DHT22;23489;49.600;6.138;2022-11-15T17:19:44;11.50;99.90
37646;DHT22;23489;49.600;6.138;2022-11-15T17:22:09;11.50;99.90
37646;DHT22;23489;49.600;6.138;2022-11-15T17:24:35;11.40;99.90
37646;DHT22;23489;49.600;6.138;2022-11-15T17:27:01;11.40;99.90
37646;DHT22;23489;49.600;6.138;2022-11-15T17:29:26;11.40;99.90
37646;DHT22;23489;49.600;6.138;2022-11-15T17:31:52;11.40;99.90
37646;DHT22;23489;49.600;6.138;2022-11-15T17:34:17;11.40;99.90
37646;DHT22;23489;49.600;6.138;2022-11-15T17:36:43;11.40;99.90
37646;DHT22;23489;49.600;6.138;2022-11-15T17:39:09;11.40;99.90
37646;DHT22;23489;49.600;6.138;2022-11-15T17:41:34;11.40;99.90
37646;DHT22;23489;49.600;6.138;2022-11-15T17:44:00;11.40;99.90
37646;DHT22;23489;49.600;6.138;2022-11-15T17:46:27;11.40;99.90
37646;DHT22;23489;49.600;6.138;2022-11-15T17:48:54;11.30;99.90
37646;DHT22;23489;49.600;6.138;2022-11-15T17:51:19;11.30;99.90
37646;DHT22;23489;49.600;6.138;2022-11-15T17:53:47;11.30;99.90
37646;DHT22;23489;49.600;6.138;2022-11-15T17:56:16;11.20;99.90
37646;DHT22;23489;49.600;6.138;2022-11-15T17:58:49;11.20;99.90
37646;DHT22;23489;49.600;6.138;2022-11-15T18:01:19;11.20;99.90
37646;DHT22;23489;49.600;6.138;2022-11-15T18:03:45;11.20;99.90
37646;DHT22;23489;49.600;6.138;2022-11-15T18:06:11;11.20;99.90
37646;DHT22;23489;49.600;6.138;2022-11-15T18:08:38;11.20;99.90
37646;DHT22;23489;49.600;6.138;2022-11-15T18:11:09;11.10;99.90
37646;DHT22;23489;49.600;6.138;2022-11-15T18:13:35;11.10;99.90
37646;DHT22;23489;49.600;6.138;2022-11-15T18:16:02;11.10;99.90
37646;DHT22;23489;49.600;6.138;2022-11-15T18:18:32;11.10;99.90
37646;DHT22;23489;49.600;6.138;2022-11-15T18:20:59;11.10;99.90
37646;DHT22;23489;49.600;6.138;2022-11-15T18:23:24;11.10;99.90
37646;DHT22;23489;49.600;6.138;2022-11-15T18:25:50;11.10;99.90
37646;DHT22;23489;49.600;6.138;2022-11-15T18:28:15;11.10;99.90